Point Pleasant, PA (18950)

4:13 AM EST on January 24, 2017 (GMT -0500)
Ockanickon Scout Reservation | | Change Station
Active Advisory: Gale Warning

Elev 460 ft 40.43 °N, 75.09 °W | Updated 3 minutes ago

Rain
Rain
33.0 °F
Feels Like 33 °F
N
1.0
Wind Variable Wind from North
Gusts 10.0 mph

Today
High -- | Low -- °F
--% Chance of Precip.
Yesterday
High -- | Low -- °F
Precip. -- in
Pressure 29.41 in
Visibility 8.0 miles
Clouds Mostly Cloudy 500 ft
Overcast 1000 ft
Windchill 33 °F
Dew Point Not available.
Humidity Not available.
Rainfall Not available.
Snow Depth Not available.
7:16 AM 5:09 PM
Waning Crescent, 13% visible
METAR KDYL 240854Z AUTO 35008KT 8SM -RA BKN005 OVC010 02/02 A2939 RMK AO2 SLP958 P0003 60018 T00220017 58002 $
Pressure 29.41 in
Visibility 8.0 miles
Clouds Mostly Cloudy 500 ft
Overcast 1000 ft
Windchill 33 °F
Dew Point Not available.
Humidity Not available.
Rainfall Not available.
Snow Depth Not available.
7:16 AM 5:09 PM
Waning Crescent, 13% visible
METAR KDYL 240854Z AUTO 35008KT 8SM -RA BKN005 OVC010 02/02 A2939 RMK AO2 SLP958 P0003 60018 T00220017 58002 $

Get Your Daily Forecast Email!

Thanks for signing up!

Be on the lookout for a verification email in your inbox.

You'll start receiving the daily forecast at 8 AM.

×

10-Day Weather Forecast

Almanac

Astronomy

Jan. 24, 2017 Rise Set
Actual Time
Civil Twilight
Nautical Twilight
Astronomical Twilight
Moon
Length of Visible Light
Length of Day
Tomorrow will be .
, % of the Moon is Illuminated

Today's Extremes

State Highs State Lows

Community

WunderPhotos

Upload Photos

1,962,540 photos uploaded!

WunderBlog® & News

Nearby

Air Quality

  Air Quality AQ Index Pollutant
Not available.

Snow Depth

Station Depth Elevation

Earthquake Activity

City Distance Mag. Time & Date
Minimum magnitude displayed is 2.5.

Coastal Water Temperatures

Place Temperature

Stations

Nearby Weather Stations

Station Location Temp. Windchill Dew Point Humidity Wind Precip. Elev Updated Type
                   

Watches & Warnings

Gale Warning
Issued: 3:48 AM EST Jan. 24, 2017 – National Weather Service

... Gale Warning remains in effect until 6 am EST early this
morning...

* winds and seas... northeast winds 20 to 25 kt with gusts up to
40 kt. Seas 4 to 7 feet.

Precautionary/preparedness actions...

A Gale Warning means sustained winds or frequent gusts of 34 to
47 kt are expected or occurring. Operating a vessel in gale
conditions requires experience and properly equipped vessels. It
is highly recommended that mariners without the proper experience
seek safe Harbor prior to the onset of gale conditions.